Time;durP1;ratioP1;P1;durP2;ratioP2;P2;SDS_P1;SDS_P2;PMS_P1;PMS_P2;Temp;Humidity;BMP_temperature;BMP_pressure;BME280_temperature;BME280_humidity;BME280_pressure;Samples;Min_cycle;Max_cycle;Signal;HPM_P1;HPM_P2
2022/12/14 00:01:53;;;;;;;30.43;20.43;;;-6.20;99.90;;;;;;5037548;28;20451;-76
2022/12/14 00:04:21;;;;;;;30.67;20.57;;;-6.20;99.90;;;;;;5037226;28;20449;-76
2022/12/14 00:06:51;;;;;;;31.20;21.20;;;-6.30;99.90;;;;;;5035341;28;20932;-78
2022/12/14 00:09:19;;;;;;;31.80;21.63;;;-6.20;99.90;;;;;;5034791;28;20546;-77
2022/12/14 00:11:47;;;;;;;31.43;21.13;;;-6.20;99.90;;;;;;5035189;28;20457;-76
2022/12/14 00:14:15;;;;;;;30.07;20.43;;;-6.20;99.90;;;;;;5035219;28;20543;-78
2022/12/14 00:16:43;;;;;;;30.13;20.37;;;-6.20;99.90;;;;;;5035196;28;20809;-77
2022/12/14 00:19:12;;;;;;;31.87;21.20;;;-6.20;99.90;;;;;;5016375;28;20493;-77
2022/12/14 00:21:45;;;;;;;30.27;20.77;;;-6.20;99.90;;;;;;5015019;28;20533;-77
2022/12/14 00:24:14;;;;;;;33.70;21.00;;;-6.10;99.90;;;;;;5014006;28;20959;-77
2022/12/14 00:26:42;;;;;;;29.77;20.00;;;-6.10;99.90;;;;;;5014394;28;21034;-81
2022/12/14 00:29:11;;;;;;;29.07;19.73;;;-6.10;99.90;;;;;;5014865;28;20491;-80
2022/12/14 00:31:39;;;;;;;28.80;20.57;;;-6.10;99.90;;;;;;5014855;28;20455;-77
2022/12/14 00:34:08;;;;;;;32.40;21.47;;;-6.10;99.90;;;;;;5015533;28;20456;-77
2022/12/14 00:36:36;;;;;;;28.27;20.00;;;-6.10;99.90;;;;;;5034982;28;20447;-77
2022/12/14 00:39:04;;;;;;;30.20;20.97;;;-6.10;99.90;;;;;;5034479;28;20501;-78
2022/12/14 00:41:34;;;;;;;30.17;20.50;;;-6.10;99.90;;;;;;5034617;28;20446;-76
2022/12/14 00:44:02;;;;;;;30.40;19.53;;;-6.10;99.90;;;;;;5033577;28;20479;-77
2022/12/14 00:46:31;;;;;;;29.13;20.00;;;-6.10;99.90;;;;;;5034314;28;20482;-78
2022/12/14 00:48:59;;;;;;;30.93;20.33;;;-6.10;99.90;;;;;;5034350;28;20481;-77
2022/12/14 00:51:27;;;;;;;27.57;20.27;;;-6.10;99.90;;;;;;5032963;28;20473;-79
2022/12/14 00:53:55;;;;;;;31.20;20.80;;;-6.10;99.90;;;;;;5033976;28;20459;-77
2022/12/14 00:56:24;;;;;;;30.37;20.10;;;-6.00;99.90;;;;;;5033974;28;20470;-79
2022/12/14 00:58:54;;;;;;;31.30;20.43;;;-6.00;99.90;;;;;;5034753;28;20464;-76
2022/12/14 01:01:22;;;;;;;28.90;19.37;;;-6.00;99.90;;;;;;5033622;28;20477;-78
2022/12/14 01:04:15;;;;;;;27.73;19.67;;;-6.00;99.90;;;;;;5034138;28;20463;-77
2022/12/14 01:06:38;;;;;;;30.07;19.67;;;-6.00;99.90;;;;;;5034025;28;20490;-79
2022/12/14 01:09:07;;;;;;;34.00;20.67;;;-6.00;99.90;;;;;;5025170;28;20472;-79
2022/12/14 01:11:35;;;;;;;29.50;20.50;;;-5.90;99.90;;;;;;5013928;28;20459;-77
2022/12/14 01:14:04;;;;;;;30.83;19.20;;;-5.90;99.90;;;;;;5018168;28;20471;-79
2022/12/14 01:16:33;;;;;;;31.37;18.97;;;-5.90;99.90;;;;;;5014859;28;20443;-77
2022/12/14 01:19:01;;;;;;;28.50;19.97;;;-5.90;99.90;;;;;;5031323;28;20492;-77
2022/12/14 01:21:34;;;;;;;29.33;20.00;;;-5.90;99.90;;;;;;5037444;28;20986;-76
2022/12/14 01:24:07;;;;;;;28.90;20.10;;;-5.90;99.90;;;;;;5023589;28;20546;-78
2022/12/14 01:26:39;;;;;;;28.97;20.27;;;-5.90;99.90;;;;;;5024814;28;20835;-80
2022/12/14 01:29:08;;;;;;;27.57;19.10;;;-5.90;99.90;;;;;;5033637;28;20439;-79
2022/12/14 01:31:37;;;;;;;37.03;20.37;;;-5.90;99.90;;;;;;5032779;28;20467;-78
2022/12/14 01:34:07;;;;;;;30.10;20.40;;;-5.90;99.90;;;;;;5033005;28;20548;-80
2022/12/14 01:36:36;;;;;;;28.60;20.60;;;-5.90;99.90;;;;;;5033056;28;20811;-79
2022/12/14 01:39:08;;;;;;;30.20;19.60;;;-5.90;99.90;;;;;;5033120;28;20453;-77
2022/12/14 01:41:38;;;;;;;29.43;20.30;;;-5.90;99.90;;;;;;5033715;28;20536;-75
2022/12/14 01:44:40;;;;;;;27.30;19.70;;;-5.90;99.90;;;;;;5033125;28;20451;-79
2022/12/14 01:47:15;;;;;;;28.07;19.73;;;-5.90;99.90;;;;;;5031688;28;20838;-77
2022/12/14 01:49:49;;;;;;;29.13;20.17;;;-5.90;99.90;;;;;;5031190;28;20443;-78
2022/12/14 01:52:22;;;;;;;28.73;19.13;;;-5.80;99.90;;;;;;5033422;28;20449;-77
2022/12/14 01:54:55;;;;;;;30.40;20.60;;;-5.90;99.90;;;;;;5033562;28;20464;-78
2022/12/14 01:57:26;;;;;;;30.03;19.90;;;-5.90;99.90;;;;;;5016663;28;20463;-77
2022/12/14 01:59:57;;;;;;;28.97;19.83;;;-5.80;99.90;;;;;;5013965;28;20523;-76
2022/12/14 02:02:36;;;;;;;31.83;20.40;;;-5.90;99.90;;;;;;5021874;28;20475;-78
2022/12/14 02:05:08;;;;;;;28.67;19.93;;;-5.90;99.90;;;;;;5032637;28;20474;-80
2022/12/14 02:07:37;;;;;;;31.23;20.33;;;-5.80;99.90;;;;;;5032923;28;20826;-79
2022/12/14 02:10:07;;;;;;;28.93;20.40;;;-5.80;99.90;;;;;;5033210;28;20542;-77
2022/12/14 02:12:41;;;;;;;32.03;21.00;;;-5.80;99.90;;;;;;5031953;28;20457;-79
2022/12/14 02:15:12;;;;;;;32.10;21.07;;;-5.70;99.90;;;;;;5032774;28;20926;-76
2022/12/14 02:17:42;;;;;;;27.50;19.83;;;-5.70;99.90;;;;;;5032276;28;20463;-78
2022/12/14 02:20:11;;;;;;;29.83;20.33;;;-5.70;99.90;;;;;;5030470;28;20472;-76
2022/12/14 02:23:18;;;;;;;28.53;20.53;;;-5.70;99.90;;;;;;5031417;28;20479;-80
2022/12/14 02:26:21;;;;;;;31.63;20.57;;;-5.70;99.90;;;;;;5032677;28;20928;-79
2022/12/14 02:29:27;;;;;;;28.80;19.70;;;-5.80;99.90;;;;;;5032803;28;20806;-77
2022/12/14 02:32:09;;;;;;;30.53;20.27;;;-5.70;99.90;;;;;;5020960;28;20814;-77
2022/12/14 02:34:50;;;;;;;32.97;21.77;;;-5.70;99.90;;;;;;5013579;28;20459;-77
2022/12/14 02:37:24;;;;;;;29.07;20.30;;;-5.80;99.90;;;;;;5013436;28;20436;-80
2022/12/14 02:40:04;;;;;;;29.73;21.03;;;-5.70;99.90;;;;;;5013245;28;20891;-77
2022/12/14 02:42:40;;;;;;;32.13;22.27;;;-5.70;99.90;;;;;;4995291;28;20430;-78
2022/12/14 02:45:20;;;;;;;30.03;20.30;;;-5.60;99.90;;;;;;5013154;28;20447;-79
2022/12/14 02:47:54;;;;;;;33.13;21.27;;;-5.60;99.90;;;;;;5014188;28;20570;-79
2022/12/14 02:50:25;;;;;;;32.43;20.67;;;-5.70;99.90;;;;;;5031580;28;20476;-78
2022/12/14 02:53:02;;;;;;;28.00;20.03;;;-5.60;99.90;;;;;;5037453;28;20440;-78
2022/12/14 02:55:35;;;;;;;29.53;21.37;;;-5.60;99.90;;;;;;5037073;28;20481;-82
2022/12/14 02:58:10;;;;;;;29.93;20.77;;;-5.60;99.90;;;;;;5022737;28;20465;-77
2022/12/14 03:00:40;;;;;;;26.37;19.03;;;-5.60;99.90;;;;;;5021120;28;20451;-76
2022/12/14 03:03:08;;;;;;;29.77;20.23;;;-5.60;99.90;;;;;;5036109;28;20433;-76
2022/12/14 03:05:36;;;;;;;29.70;20.40;;;-5.60;99.90;;;;;;5021747;28;20468;-78
2022/12/14 03:08:08;;;;;;;29.43;20.80;;;-5.60;99.90;;;;;;5016374;28;20831;-78
2022/12/14 03:10:41;;;;;;;27.33;19.70;;;-5.60;99.90;;;;;;5015956;28;20900;-79
2022/12/14 03:13:16;;;;;;;28.63;19.63;;;-5.60;99.90;;;;;;5020506;28;20465;-77
2022/12/14 03:15:51;;;;;;;28.37;19.37;;;-5.50;99.90;;;;;;5035770;28;20465;-80
2022/12/14 03:18:21;;;;;;;29.73;21.07;;;-5.50;99.90;;;;;;5036162;28;20444;-79
2022/12/14 03:20:53;;;;;;;25.13;18.40;;;-5.60;99.90;;;;;;5032632;28;20454;-79
2022/12/14 03:23:27;;;;;;;29.33;20.87;;;-5.60;99.90;;;;;;5015082;28;20804;-79
2022/12/14 03:26:01;;;;;;;30.30;20.10;;;-5.50;99.90;;;;;;5014902;28;20938;-77
2022/12/14 03:28:33;;;;;;;28.20;20.20;;;-5.50;99.90;;;;;;5014807;28;20488;-77
2022/12/14 03:31:06;;;;;;;28.37;19.60;;;-5.60;99.90;;;;;;5024918;28;20462;-74
2022/12/14 03:33:36;;;;;;;27.40;19.33;;;-5.50;99.90;;;;;;5039027;28;20492;-75
2022/12/14 03:36:10;;;;;;;28.33;19.27;;;-5.50;99.90;;;;;;5044898;28;20525;-76
2022/12/14 03:38:41;;;;;;;26.50;19.70;;;-5.60;99.90;;;;;;5047367;28;20479;-76
2022/12/14 03:41:15;;;;;;;28.20;19.90;;;-5.60;99.90;;;;;;5037893;28;20457;-73
2022/12/14 03:44:01;;;;;;;29.80;20.40;;;-5.50;99.90;;;;;;5025282;28;20424;-74
2022/12/14 03:46:40;;;;;;;26.87;19.00;;;-5.50;99.90;;;;;;5024965;28;20510;-77
2022/12/14 03:49:16;;;;;;;27.40;18.70;;;-5.40;99.90;;;;;;5025536;28;20485;-74
2022/12/14 03:51:55;;;;;;;28.67;19.90;;;-5.40;99.90;;;;;;5045429;28;20463;-73
2022/12/14 03:54:32;;;;;;;29.07;19.27;;;-5.50;99.90;;;;;;5051101;28;20444;-76
2022/12/14 03:57:09;;;;;;;27.20;19.47;;;-5.40;99.90;;;;;;5029911;28;20444;-74
2022/12/14 03:59:47;;;;;;;28.33;19.13;;;-5.40;99.90;;;;;;5037636;28;20460;-73
2022/12/14 04:02:25;;;;;;;28.83;19.90;;;-5.40;99.90;;;;;;5054498;28;20489;-75
2022/12/14 04:04:57;;;;;;;27.80;18.90;;;-5.40;99.90;;;;;;5044950;28;20503;-79
2022/12/14 04:07:36;;;;;;;24.37;18.33;;;-5.40;99.90;;;;;;5034151;28;20509;-78
2022/12/14 04:18:55;;;;;;;27.03;18.20;;;-5.40;99.90;;;;;;5035221;28;20446;-78
2022/12/14 04:18:59;;;;;;;25.83;18.93;;;-5.30;99.90;;;;;;5014746;28;20820;-79
2022/12/14 04:21:39;;;;;;;26.37;18.67;;;-5.40;99.90;;;;;;5017437;28;20455;-77
2022/12/14 04:27:04;;;;;;;25.67;17.93;;;-5.30;99.90;;;;;;5029288;28;20443;-73
2022/12/14 04:32:25;;;;;;;25.77;17.50;;;-5.30;99.90;;;;;;5019360;28;20447;-79
2022/12/14 04:35:01;;;;;;;26.77;18.50;;;-5.30;99.90;;;;;;5015969;28;20473;-79
2022/12/14 04:37:30;;;;;;;25.27;18.40;;;-5.30;99.90;;;;;;5016893;28;20430;-74
2022/12/14 04:40:05;;;;;;;24.50;18.20;;;-5.20;99.90;;;;;;5016637;28;20450;-79
2022/12/14 04:42:41;;;;;;;27.07;18.63;;;-5.20;99.90;;;;;;5015151;28;20441;-76
2022/12/14 04:45:13;;;;;;;24.20;17.77;;;-5.20;99.90;;;;;;5034752;28;20932;-77
2022/12/14 04:47:48;;;;;;;24.93;18.23;;;-5.20;99.90;;;;;;5034668;28;20465;-77
2022/12/14 04:50:22;;;;;;;25.20;17.87;;;-5.10;99.90;;;;;;5034261;28;20804;-79
2022/12/14 04:52:55;;;;;;;25.27;18.60;;;-5.20;99.90;;;;;;5030699;28;20475;-79
2022/12/14 04:55:28;;;;;;;24.53;17.77;;;-5.20;99.90;;;;;;5014038;28;21023;-77
2022/12/14 04:58:00;;;;;;;26.97;18.00;;;-5.20;99.90;;;;;;5019593;28;20456;-77
2022/12/14 05:00:33;;;;;;;26.37;18.50;;;-5.30;99.90;;;;;;5034215;28;20453;-80
2022/12/14 05:03:17;;;;;;;27.17;18.77;;;-5.20;99.90;;;;;;5033711;28;20550;-77
2022/12/14 05:05:58;;;;;;;25.00;18.33;;;-5.20;99.90;;;;;;5029739;28;20561;-77
2022/12/14 05:08:50;;;;;;;27.17;19.07;;;-5.20;99.90;;;;;;5013917;28;20997;-75
2022/12/14 05:11:25;;;;;;;26.67;18.97;;;-5.20;99.90;;;;;;5013225;28;20455;-77
2022/12/14 05:14:22;;;;;;;27.40;18.87;;;-5.20;99.90;;;;;;5020545;28;20473;-77
2022/12/14 05:16:51;;;;;;;27.93;19.47;;;-5.20;99.90;;;;;;5037686;28;20495;-80
2022/12/14 05:19:25;;;;;;;29.37;19.97;;;-5.20;99.90;;;;;;5033439;28;20463;-78
2022/12/14 05:21:55;;;;;;;27.17;19.07;;;-5.20;99.90;;;;;;5022893;28;20549;-79
2022/12/14 05:24:23;;;;;;;28.57;20.30;;;-5.10;99.90;;;;;;5014003;28;20851;-76
2022/12/14 05:26:51;;;;;;;27.07;19.50;;;-5.10;99.90;;;;;;5013727;28;20545;-79
2022/12/14 05:29:20;;;;;;;30.80;19.57;;;-5.10;99.90;;;;;;5014066;28;20492;-78
2022/12/14 05:31:48;;;;;;;27.53;20.23;;;-5.10;99.90;;;;;;5013992;28;20469;-78
2022/12/14 05:34:17;;;;;;;27.47;20.60;;;-5.30;99.90;;;;;;5034632;28;20875;-75
2022/12/14 05:36:45;;;;;;;27.90;19.77;;;-5.20;99.90;;;;;;5034227;28;20467;-76
2022/12/14 05:39:15;;;;;;;29.00;20.30;;;-5.10;99.90;;;;;;5033279;28;20458;-78
2022/12/14 05:41:43;;;;;;;28.27;20.37;;;-5.20;99.90;;;;;;5030769;28;20466;-76
2022/12/14 05:44:12;;;;;;;27.63;20.13;;;-5.20;99.90;;;;;;5033437;28;20456;-80
2022/12/14 05:46:40;;;;;;;30.27;20.63;;;-5.10;99.90;;;;;;5032937;28;20811;-77
2022/12/14 05:49:08;;;;;;;28.70;20.00;;;-5.00;99.90;;;;;;5032057;28;20482;-80
2022/12/14 05:51:37;;;;;;;27.97;19.67;;;-5.00;99.90;;;;;;5013303;28;20454;-77
2022/12/14 05:54:05;;;;;;;28.60;20.53;;;-5.00;99.90;;;;;;5012871;28;20444;-81
2022/12/14 05:56:34;;;;;;;27.63;19.83;;;-5.00;99.90;;;;;;5019424;28;20493;-79
2022/12/14 05:59:06;;;;;;;28.03;19.67;;;-5.00;99.90;;;;;;5026403;28;20633;-77
2022/12/14 06:01:34;;;;;;;26.53;20.10;;;-5.00;99.90;;;;;;5032543;28;20466;-80
2022/12/14 06:04:02;;;;;;;29.77;20.40;;;-5.10;99.90;;;;;;5032582;28;20456;-76
2022/12/14 06:06:32;;;;;;;29.03;20.17;;;-5.10;99.90;;;;;;5032635;28;20453;-79
2022/12/14 06:09:00;;;;;;;27.47;19.53;;;-5.10;99.90;;;;;;5013560;28;20476;-77
2022/12/14 06:11:31;;;;;;;29.17;19.97;;;-5.00;99.90;;;;;;5019811;28;20444;-80
2022/12/14 06:14:01;;;;;;;32.30;20.50;;;-5.10;99.90;;;;;;5032650;28;20442;-76
2022/12/14 06:16:29;;;;;;;27.67;20.27;;;-5.00;99.90;;;;;;5032478;28;20529;-78
2022/12/14 06:18:59;;;;;;;28.50;20.33;;;-5.00;99.90;;;;;;5033837;28;20451;-78
2022/12/14 06:21:29;;;;;;;27.40;20.27;;;-5.00;99.90;;;;;;5032747;28;20449;-76
2022/12/14 06:23:58;;;;;;;27.97;20.73;;;-5.00;99.90;;;;;;5031858;28;20477;-79
2022/12/14 06:26:27;;;;;;;29.60;19.47;;;-5.00;99.90;;;;;;5032116;28;20475;-79
2022/12/14 06:28:56;;;;;;;28.57;20.17;;;-5.00;99.90;;;;;;5033156;28;20486;-77
2022/12/14 06:31:28;;;;;;;29.23;20.10;;;-5.00;99.90;;;;;;5036393;28;21093;-77
2022/12/14 06:34:00;;;;;;;29.17;20.70;;;-5.00;99.90;;;;;;5030647;28;20727;-75
2022/12/14 06:36:32;;;;;;;32.30;20.77;;;-5.00;99.90;;;;;;5035552;28;20452;-76
2022/12/14 06:39:02;;;;;;;28.23;20.40;;;-5.00;99.90;;;;;;5035640;28;20534;-75
2022/12/14 06:41:30;;;;;;;30.53;20.80;;;-5.00;99.90;;;;;;5035732;28;20439;-77
2022/12/14 06:44:04;;;;;;;32.00;21.30;;;-5.00;99.90;;;;;;5033838;28;20474;-74
2022/12/14 06:46:35;;;;;;;28.77;19.83;;;-5.00;99.90;;;;;;5035214;28;20452;-77
2022/12/14 06:49:05;;;;;;;33.43;21.90;;;-5.00;99.90;;;;;;5035538;28;20467;-77
2022/12/14 06:51:39;;;;;;;34.37;23.07;;;-4.90;99.90;;;;;;5031774;28;20470;-76
2022/12/14 06:54:07;;;;;;;31.50;23.03;;;-4.90;99.90;;;;;;5032762;28;20441;-74
2022/12/14 06:56:37;;;;;;;31.03;22.00;;;-4.90;99.90;;;;;;5033400;28;20518;-77
2022/12/14 06:59:05;;;;;;;36.77;22.73;;;-4.90;99.90;;;;;;5034004;28;20820;-78
2022/12/14 07:01:36;;;;;;;30.63;21.57;;;-4.90;99.90;;;;;;5026647;28;20473;-78
2022/12/14 07:04:05;;;;;;;31.60;22.23;;;-4.90;99.90;;;;;;5017277;28;20464;-78
2022/12/14 07:06:36;;;;;;;30.90;21.67;;;-4.90;99.90;;;;;;5012922;28;20453;-79
2022/12/14 07:09:06;;;;;;;33.77;22.90;;;-4.90;99.90;;;;;;5012612;28;20491;-81
2022/12/14 07:11:34;;;;;;;31.13;22.10;;;-4.80;99.90;;;;;;5023143;28;20538;-77
2022/12/14 07:14:04;;;;;;;31.13;22.00;;;-4.80;99.90;;;;;;5032512;28;20536;-76
2022/12/14 07:16:35;;;;;;;29.70;21.23;;;-4.80;99.90;;;;;;5032328;28;20434;-78
2022/12/14 07:19:04;;;;;;;31.70;21.87;;;-4.80;99.90;;;;;;5031536;28;20430;-76
2022/12/14 07:21:33;;;;;;;30.73;20.83;;;-4.90;99.90;;;;;;5030625;28;20472;-78
2022/12/14 07:24:02;;;;;;;33.47;22.53;;;-4.90;99.90;;;;;;5030874;28;20462;-79
2022/12/14 07:26:30;;;;;;;32.07;22.47;;;-4.90;99.90;;;;;;5031691;28;20725;-75
2022/12/14 07:29:00;;;;;;;31.70;22.43;;;-4.90;99.90;;;;;;5032608;28;20805;-76
2022/12/14 07:31:29;;;;;;;32.53;23.10;;;-4.90;99.90;;;;;;5030791;28;20976;-78
2022/12/14 07:33:59;;;;;;;34.83;23.83;;;-4.90;99.90;;;;;;5032404;28;20442;-79
2022/12/14 07:36:29;;;;;;;31.63;21.97;;;-4.80;99.90;;;;;;5035234;28;20440;-79
2022/12/14 07:38:57;;;;;;;32.00;22.33;;;-4.80;99.90;;;;;;5033963;28;20477;-76
2022/12/14 07:41:29;;;;;;;33.70;23.17;;;-4.80;99.90;;;;;;5034667;28;21167;-81
2022/12/14 07:43:59;;;;;;;32.60;23.43;;;-4.70;99.90;;;;;;5032506;28;20826;-77
2022/12/14 07:46:28;;;;;;;34.00;23.27;;;-4.70;99.90;;;;;;5035006;28;20471;-79
2022/12/14 07:48:59;;;;;;;31.70;22.33;;;-4.60;99.90;;;;;;5034270;28;20961;-77
2022/12/14 07:51:29;;;;;;;36.80;22.90;;;-4.60;99.90;;;;;;5035151;28;20469;-79
2022/12/14 07:53:58;;;;;;;31.27;22.37;;;-4.60;99.90;;;;;;5034701;28;20468;-79
2022/12/14 07:56:31;;;;;;;33.60;22.57;;;-4.60;99.90;;;;;;5034250;28;20481;-78
2022/12/14 07:59:02;;;;;;;31.43;22.67;;;-4.60;99.90;;;;;;5015587;28;20457;-78
2022/12/14 08:01:31;;;;;;;31.53;22.13;;;-4.60;99.90;;;;;;5014889;28;20455;-78
2022/12/14 08:04:05;;;;;;;32.03;23.07;;;-4.50;99.90;;;;;;5014335;28;20926;-79
2022/12/14 08:06:34;;;;;;;32.83;22.43;;;-4.50;99.90;;;;;;5033484;28;20479;-79
2022/12/14 08:09:04;;;;;;;34.33;23.17;;;-4.60;99.90;;;;;;5033797;28;20647;-79
2022/12/14 08:11:32;;;;;;;30.13;22.27;;;-4.50;99.90;;;;;;5033694;28;20506;-75
2022/12/14 08:14:01;;;;;;;30.53;22.27;;;-4.40;99.90;;;;;;5034218;28;20467;-78
2022/12/14 08:16:30;;;;;;;32.13;23.37;;;-4.30;99.90;;;;;;5033703;28;20458;-76
2022/12/14 08:19:00;;;;;;;23.73;18.23;;;-1.60;99.90;;;;;;5017468;28;20456;-79
2022/12/14 08:21:30;;;;;;;23.50;18.27;;;-1.40;99.90;;;;;;5029356;28;20452;-79
2022/12/14 08:23:58;;;;;;;27.90;20.07;;;-2.30;99.90;;;;;;5034585;28;20462;-77
2022/12/14 08:26:26;;;;;;;25.53;18.90;;;-2.90;99.90;;;;;;5034951;28;20908;-78
2022/12/14 08:29:02;;;;;;;25.30;19.23;;;-3.20;99.90;;;;;;5034675;28;20454;-74
2022/12/14 08:31:31;;;;;;;25.87;20.23;;;-3.60;99.90;;;;;;5028702;28;20489;-75
2022/12/14 08:34:01;;;;;;;29.03;20.83;;;-3.80;99.90;;;;;;5013922;28;20861;-77
2022/12/14 08:36:31;;;;;;;28.30;21.33;;;-4.00;99.90;;;;;;5014628;28;20441;-78
2022/12/14 08:39:01;;;;;;;30.63;21.60;;;-4.10;99.90;;;;;;5013983;28;20498;-76
2022/12/14 08:41:30;;;;;;;29.10;20.83;;;-4.10;99.90;;;;;;5014220;28;20467;-77
2022/12/14 08:44:00;;;;;;;31.60;22.50;;;-4.10;99.90;;;;;;5014270;28;20492;-76
2022/12/14 08:46:30;;;;;;;31.17;23.00;;;-4.10;99.90;;;;;;5013282;28;20456;-80
2022/12/14 08:48:58;;;;;;;32.53;23.13;;;-4.10;99.90;;;;;;5014266;28;20497;-77
2022/12/14 08:51:28;;;;;;;30.17;22.50;;;-4.00;99.90;;;;;;5014339;28;21034;-76
2022/12/14 08:53:57;;;;;;;31.97;22.67;;;-3.90;99.90;;;;;;5032719;28;20452;-78
2022/12/14 08:56:27;;;;;;;30.23;22.23;;;-3.80;99.90;;;;;;5036805;28;20602;-74
2022/12/14 08:58:56;;;;;;;28.83;21.43;;;-3.70;99.90;;;;;;5039950;28;20531;-75
2022/12/14 09:01:26;;;;;;;27.23;20.77;;;-3.70;99.90;;;;;;5014307;28;20817;-76
2022/12/14 09:04:03;;;;;;;28.87;21.77;;;-3.80;99.90;;;;;;5014137;28;20467;-77
2022/12/14 09:06:35;;;;;;;29.73;21.83;;;-3.70;99.90;;;;;;5014482;28;20445;-75
2022/12/14 09:09:04;;;;;;;30.77;21.90;;;-3.70;99.90;;;;;;5024395;28;20905;-75
2022/12/14 09:11:37;;;;;;;27.97;20.17;;;-3.70;99.90;;;;;;5039605;28;20476;-74
2022/12/14 09:14:06;;;;;;;24.90;19.43;;;-3.50;99.90;;;;;;5037636;28;20459;-76
2022/12/14 09:16:34;;;;;;;29.53;21.10;;;-3.50;99.90;;;;;;5035851;28;20444;-75
2022/12/14 09:19:02;;;;;;;27.40;21.20;;;-3.40;99.90;;;;;;5033242;28;20539;-75
2022/12/14 09:21:31;;;;;;;28.70;20.87;;;-3.40;99.90;;;;;;5014324;28;20544;-78
2022/12/14 09:24:01;;;;;;;28.03;20.93;;;-3.50;99.90;;;;;;5013194;28;20440;-79
2022/12/14 09:26:29;;;;;;;27.90;21.00;;;-3.40;99.90;;;;;;5014187;28;20817;-78
2022/12/14 09:28:58;;;;;;;26.80;19.87;;;-3.20;99.90;;;;;;5013418;28;20551;-77
2022/12/14 09:31:27;;;;;;;27.20;21.03;;;-3.10;99.90;;;;;;5029869;28;20547;-75
2022/12/14 09:33:56;;;;;;;29.88;25.00;;;-3.10;99.90;;;;;;5012660;28;20937;-78
2022/12/14 09:36:25;;;;;;;31.13;22.60;;;-3.10;99.90;;;;;;5033266;28;20205;-76
2022/12/14 09:38:55;;;;;;;26.17;20.33;;;-3.20;99.90;;;;;;5033775;28;20455;-77
2022/12/14 09:41:34;;;;;;;28.23;20.67;;;-3.20;99.90;;;;;;5033036;28;20472;-75
2022/12/14 09:44:13;;;;;;;28.57;21.03;;;-3.20;99.90;;;;;;5032578;28;20523;-79
2022/12/14 09:46:55;;;;;;;28.37;20.77;;;-3.00;99.90;;;;;;5028183;28;20437;-74
2022/12/14 09:49:28;;;;;;;27.27;20.90;;;-3.00;99.90;;;;;;5013925;28;20459;-79
2022/12/14 09:52:01;;;;;;;26.93;20.60;;;-2.90;99.90;;;;;;5027539;28;20493;-76
2022/12/14 09:54:33;;;;;;;27.73;19.90;;;-3.00;99.90;;;;;;5032593;28;20491;-75
2022/12/14 09:57:10;;;;;;;30.13;21.67;;;-2.90;99.90;;;;;;5033055;28;20452;-74
2022/12/14 09:59:38;;;;;;;28.50;21.47;;;-3.00;99.90;;;;;;5033340;28;20535;-76
2022/12/14 10:02:27;;;;;;;30.57;21.17;;;-2.90;99.90;;;;;;5032906;28;20462;-78
2022/12/14 10:05:20;;;;;;;31.07;22.20;;;-3.10;99.90;;;;;;5014194;28;20441;-74
2022/12/14 10:07:59;;;;;;;30.03;21.50;;;-3.00;99.90;;;;;;5001882;28;20515;-79
2022/12/14 10:10:32;;;;;;;29.20;21.87;;;-2.90;99.90;;;;;;5033124;28;20906;-80
2022/12/14 10:13:11;;;;;;;30.97;22.93;;;-3.00;99.90;;;;;;5021374;28;20555;-76
2022/12/14 10:15:45;;;;;;;30.20;22.77;;;-3.00;99.90;;;;;;5027962;28;20430;-79
2022/12/14 10:18:26;;;;;;;30.00;22.03;;;-2.80;99.90;;;;;;5030966;28;20431;-77
2022/12/14 10:21:18;;;;;;;31.77;22.17;;;-2.70;99.90;;;;;;5013896;28;20537;-79
2022/12/14 10:23:52;;;;;;;26.43;21.23;;;-2.50;99.90;;;;;;5028177;28;20452;-76
2022/12/14 10:26:25;;;;;;;29.17;21.93;;;-2.80;99.90;;;;;;5032859;28;20436;-77
2022/12/14 10:28:58;;;;;;;28.57;22.37;;;-2.80;99.90;;;;;;5031517;28;20530;-75
2022/12/14 10:31:40;;;;;;;30.57;23.03;;;-2.90;99.90;;;;;;5026818;28;20518;-74
2022/12/14 10:34:17;;;;;;;29.57;21.33;;;-2.90;99.90;;;;;;5032250;28;20956;-76
2022/12/14 10:36:52;;;;;;;28.53;22.57;;;-2.80;99.90;;;;;;5032939;28;20547;-78
2022/12/14 10:39:32;;;;;;;30.80;22.90;;;-2.70;99.90;;;;;;5014911;28;20468;-79
2022/12/14 10:42:09;;;;;;;30.63;23.53;;;-2.50;99.90;;;;;;5012878;28;20833;-77
2022/12/14 10:44:50;;;;;;;28.50;21.60;;;-2.60;99.90;;;;;;5013172;28;20457;-78
2022/12/14 10:47:41;;;;;;;27.70;21.60;;;-2.60;99.90;;;;;;5020180;28;20903;-78
2022/12/14 10:50:19;;;;;;;28.50;21.83;;;-2.70;99.90;;;;;;5033184;28;20446;-77
2022/12/14 10:52:52;;;;;;;28.27;20.83;;;-2.70;99.90;;;;;;5032625;28;20495;-75
2022/12/14 10:55:27;;;;;;;27.70;21.20;;;-2.70;99.90;;;;;;5031505;28;20463;-77
2022/12/14 10:57:56;;;;;;;32.10;22.80;;;-2.90;99.90;;;;;;5012839;28;20479;-78
2022/12/14 11:00:25;;;;;;;30.03;22.60;;;-2.80;99.90;;;;;;5012871;28;20472;-78
2022/12/14 11:02:56;;;;;;;28.83;22.40;;;-2.80;99.90;;;;;;5012265;28;20440;-75
2022/12/14 11:05:34;;;;;;;28.87;22.30;;;-2.70;99.90;;;;;;5027323;28;20464;-75
2022/12/14 11:08:06;;;;;;;51.80;38.93;;;-2.70;99.90;;;;;;5030745;28;20450;-79
2022/12/14 11:10:35;;;;;;;29.43;22.43;;;-2.70;99.90;;;;;;5036435;28;20443;-78
2022/12/14 11:13:06;;;;;;;31.40;23.50;;;-2.90;99.90;;;;;;5034802;28;20475;-75
2022/12/14 11:15:39;;;;;;;30.47;22.53;;;-2.80;99.90;;;;;;5036347;28;20447;-77
2022/12/14 11:18:23;;;;;;;29.97;23.47;;;-2.80;99.90;;;;;;5035942;28;20523;-78
2022/12/14 11:20:54;;;;;;;32.63;23.80;;;-2.70;99.90;;;;;;5028988;28;20467;-76
2022/12/14 11:23:26;;;;;;;30.00;22.83;;;-2.70;99.90;;;;;;5036382;28;20438;-78
2022/12/14 11:25:57;;;;;;;29.03;23.03;;;-2.60;99.90;;;;;;5037012;28;20448;-76
2022/12/14 11:28:29;;;;;;;32.43;23.20;;;-2.50;99.90;;;;;;5032110;28;20423;-77
2022/12/14 11:31:08;;;;;;;28.53;22.97;;;-2.20;99.90;;;;;;5033012;28;20464;-79
2022/12/14 11:33:45;;;;;;;27.70;21.73;;;-2.10;99.90;;;;;;5039375;28;20951;-75
2022/12/14 11:36:24;;;;;;;27.97;22.03;;;-1.90;99.90;;;;;;5038133;28;20570;-73
2022/12/14 11:38:56;;;;;;;33.20;23.43;;;-1.80;99.90;;;;;;5039188;28;20529;-74
2022/12/14 11:41:26;;;;;;;29.17;21.37;;;-1.70;99.90;;;;;;5039239;28;20440;-77
2022/12/14 11:44:05;;;;;;;26.70;21.17;;;-1.50;99.90;;;;;;5037593;28;20431;-81
2022/12/14 11:46:49;;;;;;;28.93;20.97;;;-1.50;99.90;;;;;;5029059;28;20451;-72
2022/12/14 11:49:24;;;;;;;29.93;21.60;;;-1.60;99.90;;;;;;5032603;28;20460;-74
2022/12/14 11:51:59;;;;;;;26.50;21.07;;;-1.60;99.90;;;;;;5036013;28;20471;-74
2022/12/14 11:54:28;;;;;;;24.70;20.10;;;-1.60;99.90;;;;;;5035194;28;20470;-74
2022/12/14 11:57:01;;;;;;;30.57;21.90;;;-1.70;99.90;;;;;;5035432;28;20463;-74
2022/12/14 11:59:39;;;;;;;28.50;22.53;;;-1.60;99.90;;;;;;5035709;28;20478;-75
2022/12/14 12:02:19;;;;;;;41.70;31.27;;;-1.60;99.90;;;;;;5033629;28;20435;-74
2022/12/14 12:04:51;;;;;;;29.03;22.03;;;-1.70;99.90;;;;;;5015663;28;20691;-75
2022/12/14 12:07:25;;;;;;;29.23;21.87;;;-1.80;99.90;;;;;;5023893;28;20470;-77
2022/12/14 12:09:54;;;;;;;29.17;22.47;;;-1.80;99.90;;;;;;5040563;28;20542;-75
2022/12/14 12:12:23;;;;;;;29.43;22.53;;;-2.00;99.90;;;;;;5035487;28;20487;-74
2022/12/14 12:14:57;;;;;;;28.42;24.58;;;-1.90;99.90;;;;;;5039259;28;20444;-75
2022/12/14 12:17:40;;;;;;;31.43;25.37;;;-1.30;99.90;;;;;;5029691;28;20209;-76
2022/12/14 12:20:26;;;;;;;28.30;22.30;;;-0.50;99.90;;;;;;5035503;28;20464;-74
2022/12/14 12:22:59;;;;;;;29.05;24.25;;;-1.00;99.90;;;;;;5048997;28;20465;-74
2022/12/14 12:25:32;;;;;;;28.27;23.13;;;-1.00;99.90;;;;;;5041515;28;20557;-74
2022/12/14 12:28:13;;;;;;;27.90;22.33;;;-1.40;99.90;;;;;;5046395;28;20237;-73
2022/12/14 12:30:46;;;;;;;28.17;22.73;;;-1.30;99.90;;;;;;5023331;28;20432;-74
2022/12/14 12:33:28;;;;;;;29.30;23.20;;;-1.30;99.90;;;;;;5022545;28;20469;-73
2022/12/14 12:36:00;;;;;;;29.97;21.90;;;-1.30;99.90;;;;;;5019897;28;20229;-74
2022/12/14 12:38:44;;;;;;;32.40;24.27;;;-1.40;99.90;;;;;;5025326;28;20556;-75
2022/12/14 12:41:44;;;;;;;32.40;23.53;;;-1.30;99.90;;;;;;5016903;28;20205;-75
2022/12/14 12:44:38;;;;;;;35.17;22.37;;;-1.20;99.90;;;;;;5015359;28;20483;-78
2022/12/14 12:47:16;;;;;;;35.60;23.77;;;-1.30;99.90;;;;;;5033498;28;20209;-78
2022/12/14 12:50:14;;;;;;;27.80;22.73;;;-1.30;99.90;;;;;;5034332;28;20918;-77
2022/12/14 12:52:51;;;;;;;31.37;23.57;;;-1.20;99.90;;;;;;5033921;28;20830;-79
2022/12/14 12:55:27;;;;;;;29.93;22.77;;;-1.40;99.90;;;;;;5016459;28;20210;-77
2022/12/14 12:57:58;;;;;;;55.40;40.40;;;-1.50;99.90;;;;;;5025410;28;20218;-74
2022/12/14 13:00:29;;;;;;;33.93;26.53;;;-1.50;99.90;;;;;;5014116;28;20222;-75
2022/12/14 13:03:01;;;;;;;34.50;27.47;;;-1.40;99.90;;;;;;5013764;28;20452;-75
2022/12/14 13:05:31;;;;;;;31.40;24.23;;;-1.40;99.90;;;;;;5019647;28;20955;-73
2022/12/14 13:08:22;;;;;;;31.53;24.97;;;-1.50;99.90;;;;;;5028819;28;20481;-73
2022/12/14 13:10:53;;;;;;;29.33;24.10;;;-1.60;99.90;;;;;;5031407;28;20479;-73